sensor_id;sensor_type;location;lat;lon;timestamp;P1;durP1;ratioP1;P2;durP2;ratioP2
32866;SDS011;19220;55.816;37.808;2023-04-03T00:01:54;13.85;;;7.50;;
32866;SDS011;19220;55.816;37.808;2023-04-03T00:04:20;16.13;;;7.13;;
32866;SDS011;19220;55.816;37.808;2023-04-03T00:06:45;11.95;;;7.63;;
32866;SDS011;19220;55.816;37.808;2023-04-03T00:09:11;9.77;;;6.75;;
32866;SDS011;19220;55.816;37.808;2023-04-03T00:11:36;11.05;;;7.03;;
32866;SDS011;19220;55.816;37.808;2023-04-03T00:14:05;14.65;;;7.43;;
32866;SDS011;19220;55.816;37.808;2023-04-03T00:16:31;10.48;;;7.43;;
32866;SDS011;19220;55.816;37.808;2023-04-03T00:18:56;9.73;;;7.32;;
32866;SDS011;19220;55.816;37.808;2023-04-03T00:21:21;10.52;;;7.75;;
32866;SDS011;19220;55.816;37.808;2023-04-03T00:23:47;13.52;;;7.30;;
32866;SDS011;19220;55.816;37.808;2023-04-03T00:26:12;12.50;;;7.32;;
32866;SDS011;19220;55.816;37.808;2023-04-03T00:28:39;10.32;;;7.13;;
32866;SDS011;19220;55.816;37.808;2023-04-03T00:31:05;13.40;;;7.30;;
32866;SDS011;19220;55.816;37.808;2023-04-03T00:33:30;10.93;;;7.40;;
32866;SDS011;19220;55.816;37.808;2023-04-03T00:35:56;11.18;;;7.97;;
32866;SDS011;19220;55.816;37.808;2023-04-03T00:38:21;20.48;;;7.95;;
32866;SDS011;19220;55.816;37.808;2023-04-03T00:40:47;13.45;;;7.40;;
32866;SDS011;19220;55.816;37.808;2023-04-03T00:43:18;10.25;;;7.22;;
32866;SDS011;19220;55.816;37.808;2023-04-03T00:45:46;12.40;;;7.25;;
32866;SDS011;19220;55.816;37.808;2023-04-03T00:48:17;12.10;;;8.07;;
32866;SDS011;19220;55.816;37.808;2023-04-03T00:50:43;9.50;;;7.15;;
32866;SDS011;19220;55.816;37.808;2023-04-03T00:53:11;12.85;;;8.00;;
32866;SDS011;19220;55.816;37.808;2023-04-03T00:55:38;12.48;;;8.02;;
32866;SDS011;19220;55.816;37.808;2023-04-03T00:58:04;12.30;;;8.18;;
32866;SDS011;19220;55.816;37.808;2023-04-03T01:00:32;11.90;;;8.07;;
32866;SDS011;19220;55.816;37.808;2023-04-03T01:02:57;13.88;;;8.77;;
32866;SDS011;19220;55.816;37.808;2023-04-03T01:05:24;13.90;;;8.43;;
32866;SDS011;19220;55.816;37.808;2023-04-03T01:07:49;14.90;;;8.48;;
32866;SDS011;19220;55.816;37.808;2023-04-03T01:10:16;17.50;;;8.82;;
32866;SDS011;19220;55.816;37.808;2023-04-03T01:12:44;13.65;;;8.73;;
32866;SDS011;19220;55.816;37.808;2023-04-03T01:15:12;14.90;;;8.65;;
32866;SDS011;19220;55.816;37.808;2023-04-03T01:22:42;12.68;;;8.85;;
32866;SDS011;19220;55.816;37.808;2023-04-03T01:25:09;13.25;;;9.13;;
32866;SDS011;19220;55.816;37.808;2023-04-03T01:27:34;14.07;;;9.23;;
32866;SDS011;19220;55.816;37.808;2023-04-03T01:30:00;14.88;;;9.00;;
32866;SDS011;19220;55.816;37.808;2023-04-03T01:32:26;11.45;;;9.32;;
32866;SDS011;19220;55.816;37.808;2023-04-03T01:34:51;15.20;;;8.80;;
32866;SDS011;19220;55.816;37.808;2023-04-03T01:37:17;13.65;;;9.52;;
32866;SDS011;19220;55.816;37.808;2023-04-03T01:39:42;15.57;;;9.52;;
32866;SDS011;19220;55.816;37.808;2023-04-03T01:42:08;11.52;;;9.32;;
32866;SDS011;19220;55.816;37.808;2023-04-03T01:44:37;14.75;;;9.63;;
32866;SDS011;19220;55.816;37.808;2023-04-03T01:47:05;15.88;;;9.07;;
32866;SDS011;19220;55.816;37.808;2023-04-03T01:49:31;14.88;;;10.00;;
32866;SDS011;19220;55.816;37.808;2023-04-03T01:51:56;20.17;;;10.15;;
32866;SDS011;19220;55.816;37.808;2023-04-03T01:54:22;12.48;;;9.75;;
32866;SDS011;19220;55.816;37.808;2023-04-03T01:56:47;14.40;;;9.88;;
32866;SDS011;19220;55.816;37.808;2023-04-03T01:59:13;14.13;;;9.98;;
32866;SDS011;19220;55.816;37.808;2023-04-03T02:01:42;17.23;;;10.65;;
32866;SDS011;19220;55.816;37.808;2023-04-03T02:04:10;17.48;;;11.27;;
32866;SDS011;19220;55.816;37.808;2023-04-03T02:06:36;20.05;;;11.88;;
32866;SDS011;19220;55.816;37.808;2023-04-03T02:09:02;18.70;;;13.82;;
32866;SDS011;19220;55.816;37.808;2023-04-03T02:11:29;20.67;;;14.45;;
32866;SDS011;19220;55.816;37.808;2023-04-03T02:16:29;19.77;;;16.35;;
32866;SDS011;19220;55.816;37.808;2023-04-03T02:18:55;17.98;;;15.68;;
32866;SDS011;19220;55.816;37.808;2023-04-03T02:21:21;19.02;;;13.68;;
32866;SDS011;19220;55.816;37.808;2023-04-03T02:23:47;20.30;;;13.85;;
32866;SDS011;19220;55.816;37.808;2023-04-03T02:26:13;20.60;;;13.00;;
32866;SDS011;19220;55.816;37.808;2023-04-03T02:28:39;18.92;;;13.63;;
32866;SDS011;19220;55.816;37.808;2023-04-03T02:31:06;16.95;;;13.25;;
32866;SDS011;19220;55.816;37.808;2023-04-03T02:33:32;21.27;;;13.30;;
32866;SDS011;19220;55.816;37.808;2023-04-03T02:35:58;18.75;;;13.40;;
32866;SDS011;19220;55.816;37.808;2023-04-03T02:38:24;20.13;;;13.70;;
32866;SDS011;19220;55.816;37.808;2023-04-03T02:40:50;24.42;;;14.05;;
32866;SDS011;19220;55.816;37.808;2023-04-03T02:43:16;18.50;;;14.02;;
32866;SDS011;19220;55.816;37.808;2023-04-03T02:45:42;23.33;;;14.63;;
32866;SDS011;19220;55.816;37.808;2023-04-03T02:48:07;18.48;;;14.20;;
32866;SDS011;19220;55.816;37.808;2023-04-03T02:50:34;21.73;;;14.55;;
32866;SDS011;19220;55.816;37.808;2023-04-03T02:52:59;20.27;;;15.15;;
32866;SDS011;19220;55.816;37.808;2023-04-03T02:55:25;18.38;;;15.00;;
32866;SDS011;19220;55.816;37.808;2023-04-03T02:57:54;20.65;;;14.30;;
32866;SDS011;19220;55.816;37.808;2023-04-03T03:00:19;25.00;;;16.42;;
32866;SDS011;19220;55.816;37.808;2023-04-03T03:02:45;23.60;;;17.20;;
32866;SDS011;19220;55.816;37.808;2023-04-03T03:05:10;25.33;;;17.17;;
32866;SDS011;19220;55.816;37.808;2023-04-03T03:07:36;22.85;;;16.75;;
32866;SDS011;19220;55.816;37.808;2023-04-03T03:10:02;32.30;;;17.93;;
32866;SDS011;19220;55.816;37.808;2023-04-03T03:12:28;24.80;;;17.20;;
32866;SDS011;19220;55.816;37.808;2023-04-03T03:14:55;23.42;;;16.70;;
32866;SDS011;19220;55.816;37.808;2023-04-03T03:17:20;30.42;;;17.60;;
32866;SDS011;19220;55.816;37.808;2023-04-03T03:19:46;26.05;;;17.02;;
32866;SDS011;19220;55.816;37.808;2023-04-03T03:22:11;24.25;;;16.05;;
32866;SDS011;19220;55.816;37.808;2023-04-03T03:24:37;22.67;;;15.90;;
32866;SDS011;19220;55.816;37.808;2023-04-03T03:27:02;27.58;;;16.30;;
32866;SDS011;19220;55.816;37.808;2023-04-03T03:29:28;23.83;;;15.73;;
32866;SDS011;19220;55.816;37.808;2023-04-03T03:31:53;21.08;;;14.35;;
32866;SDS011;19220;55.816;37.808;2023-04-03T03:34:19;24.95;;;14.13;;
32866;SDS011;19220;55.816;37.808;2023-04-03T03:36:45;22.65;;;13.52;;
32866;SDS011;19220;55.816;37.808;2023-04-03T03:39:12;27.10;;;12.80;;
32866;SDS011;19220;55.816;37.808;2023-04-03T03:41:37;22.95;;;12.57;;
32866;SDS011;19220;55.816;37.808;2023-04-03T03:44:04;24.02;;;13.23;;
32866;SDS011;19220;55.816;37.808;2023-04-03T03:46:31;27.55;;;12.32;;
32866;SDS011;19220;55.816;37.808;2023-04-03T03:48:56;19.67;;;11.85;;
32866;SDS011;19220;55.816;37.808;2023-04-03T03:51:22;21.55;;;11.82;;
32866;SDS011;19220;55.816;37.808;2023-04-03T03:53:48;21.35;;;11.73;;
32866;SDS011;19220;55.816;37.808;2023-04-03T03:56:17;20.10;;;12.32;;
32866;SDS011;19220;55.816;37.808;2023-04-03T03:58:44;24.75;;;11.68;;
32866;SDS011;19220;55.816;37.808;2023-04-03T04:01:11;19.08;;;10.98;;
32866;SDS011;19220;55.816;37.808;2023-04-03T04:03:44;20.20;;;11.48;;
32866;SDS011;19220;55.816;37.808;2023-04-03T04:06:13;18.38;;;10.88;;
32866;SDS011;19220;55.816;37.808;2023-04-03T04:08:39;15.68;;;10.52;;
32866;SDS011;19220;55.816;37.808;2023-04-03T04:11:07;25.52;;;10.55;;
32866;SDS011;19220;55.816;37.808;2023-04-03T04:13:33;14.73;;;10.05;;
32866;SDS011;19220;55.816;37.808;2023-04-03T04:15:59;17.42;;;9.23;;
32866;SDS011;19220;55.816;37.808;2023-04-03T04:18:25;14.07;;;9.57;;
32866;SDS011;19220;55.816;37.808;2023-04-03T04:20:50;19.02;;;9.25;;
32866;SDS011;19220;55.816;37.808;2023-04-03T04:23:17;18.50;;;9.35;;
32866;SDS011;19220;55.816;37.808;2023-04-03T04:25:44;17.23;;;8.65;;
32866;SDS011;19220;55.816;37.808;2023-04-03T04:28:10;12.68;;;8.77;;
32866;SDS011;19220;55.816;37.808;2023-04-03T04:30:36;13.85;;;9.32;;
32866;SDS011;19220;55.816;37.808;2023-04-03T04:33:03;16.20;;;8.48;;
32866;SDS011;19220;55.816;37.808;2023-04-03T04:35:31;15.25;;;8.63;;
32866;SDS011;19220;55.816;37.808;2023-04-03T04:37:56;16.95;;;8.50;;
32866;SDS011;19220;55.816;37.808;2023-04-03T04:40:22;13.95;;;8.65;;
32866;SDS011;19220;55.816;37.808;2023-04-03T04:42:48;18.85;;;8.30;;
32866;SDS011;19220;55.816;37.808;2023-04-03T04:45:14;14.93;;;8.32;;
32866;SDS011;19220;55.816;37.808;2023-04-03T04:47:42;12.98;;;7.90;;
32866;SDS011;19220;55.816;37.808;2023-04-03T04:50:08;25.15;;;9.13;;
32866;SDS011;19220;55.816;37.808;2023-04-03T04:52:34;15.60;;;8.32;;
32866;SDS011;19220;55.816;37.808;2023-04-03T04:55:00;17.45;;;8.10;;
32866;SDS011;19220;55.816;37.808;2023-04-03T04:57:28;14.80;;;8.18;;
32866;SDS011;19220;55.816;37.808;2023-04-03T04:59:56;21.40;;;8.90;;
32866;SDS011;19220;55.816;37.808;2023-04-03T05:02:21;16.60;;;8.60;;
32866;SDS011;19220;55.816;37.808;2023-04-03T05:04:48;19.05;;;10.35;;
32866;SDS011;19220;55.816;37.808;2023-04-03T05:07:20;21.10;;;9.38;;
32866;SDS011;19220;55.816;37.808;2023-04-03T05:09:45;15.68;;;9.85;;
32866;SDS011;19220;55.816;37.808;2023-04-03T05:12:13;17.05;;;9.20;;
32866;SDS011;19220;55.816;37.808;2023-04-03T05:14:45;21.95;;;9.48;;
32866;SDS011;19220;55.816;37.808;2023-04-03T05:17:11;13.55;;;10.30;;
32866;SDS011;19220;55.816;37.808;2023-04-03T05:19:39;16.63;;;10.38;;
32866;SDS011;19220;55.816;37.808;2023-04-03T05:22:07;17.38;;;9.80;;
32866;SDS011;19220;55.816;37.808;2023-04-03T05:24:33;17.13;;;9.90;;
32866;SDS011;19220;55.816;37.808;2023-04-03T05:27:00;19.52;;;9.85;;
32866;SDS011;19220;55.816;37.808;2023-04-03T05:29:26;25.27;;;10.35;;
32866;SDS011;19220;55.816;37.808;2023-04-03T05:31:52;21.38;;;10.10;;
32866;SDS011;19220;55.816;37.808;2023-04-03T05:34:18;14.30;;;9.68;;
32866;SDS011;19220;55.816;37.808;2023-04-03T05:36:46;16.95;;;9.07;;
32866;SDS011;19220;55.816;37.808;2023-04-03T05:39:13;20.08;;;9.70;;
32866;SDS011;19220;55.816;37.808;2023-04-03T05:41:41;18.88;;;8.80;;
32866;SDS011;19220;55.816;37.808;2023-04-03T05:44:07;18.25;;;9.93;;
32866;SDS011;19220;55.816;37.808;2023-04-03T05:46:32;14.77;;;8.73;;
32866;SDS011;19220;55.816;37.808;2023-04-03T05:49:02;15.40;;;9.32;;
32866;SDS011;19220;55.816;37.808;2023-04-03T05:51:31;13.65;;;9.23;;
32866;SDS011;19220;55.816;37.808;2023-04-03T05:56:34;18.02;;;9.75;;
32866;SDS011;19220;55.816;37.808;2023-04-03T05:59:00;17.95;;;8.63;;
32866;SDS011;19220;55.816;37.808;2023-04-03T06:01:26;17.27;;;8.48;;
32866;SDS011;19220;55.816;37.808;2023-04-03T06:03:52;15.93;;;8.45;;
32866;SDS011;19220;55.816;37.808;2023-04-03T06:06:17;13.90;;;7.32;;
32866;SDS011;19220;55.816;37.808;2023-04-03T06:08:43;16.05;;;7.53;;
32866;SDS011;19220;55.816;37.808;2023-04-03T06:11:10;9.90;;;7.30;;
32866;SDS011;19220;55.816;37.808;2023-04-03T06:13:36;11.40;;;6.78;;
32866;SDS011;19220;55.816;37.808;2023-04-03T06:16:02;13.73;;;7.57;;
32866;SDS011;19220;55.816;37.808;2023-04-03T06:18:29;12.80;;;7.68;;
32866;SDS011;19220;55.816;37.808;2023-04-03T06:20:55;12.15;;;7.57;;
32866;SDS011;19220;55.816;37.808;2023-04-03T06:23:21;16.02;;;7.78;;
32866;SDS011;19220;55.816;37.808;2023-04-03T06:25:46;14.57;;;7.30;;
32866;SDS011;19220;55.816;37.808;2023-04-03T06:28:12;10.77;;;6.82;;
32866;SDS011;19220;55.816;37.808;2023-04-03T06:30:37;20.58;;;6.95;;
32866;SDS011;19220;55.816;37.808;2023-04-03T06:33:03;13.32;;;7.95;;
32866;SDS011;19220;55.816;37.808;2023-04-03T06:35:29;9.85;;;7.70;;
32866;SDS011;19220;55.816;37.808;2023-04-03T06:37:55;17.77;;;7.50;;
32866;SDS011;19220;55.816;37.808;2023-04-03T06:40:22;16.00;;;7.75;;
32866;SDS011;19220;55.816;37.808;2023-04-03T06:42:47;12.80;;;7.07;;
32866;SDS011;19220;55.816;37.808;2023-04-03T06:45:13;14.30;;;7.32;;
32866;SDS011;19220;55.816;37.808;2023-04-03T06:47:38;11.30;;;7.20;;
32866;SDS011;19220;55.816;37.808;2023-04-03T06:50:04;17.17;;;8.60;;
32866;SDS011;19220;55.816;37.808;2023-04-03T06:52:31;17.33;;;7.88;;
32866;SDS011;19220;55.816;37.808;2023-04-03T06:54:57;13.40;;;7.72;;
32866;SDS011;19220;55.816;37.808;2023-04-03T06:57:24;16.73;;;8.23;;
32866;SDS011;19220;55.816;37.808;2023-04-03T06:59:50;16.75;;;7.63;;
32866;SDS011;19220;55.816;37.808;2023-04-03T07:02:15;11.68;;;8.68;;
32866;SDS011;19220;55.816;37.808;2023-04-03T07:04:41;14.95;;;9.02;;
32866;SDS011;19220;55.816;37.808;2023-04-03T07:07:06;15.05;;;8.32;;
32866;SDS011;19220;55.816;37.808;2023-04-03T07:09:32;17.75;;;7.88;;
32866;SDS011;19220;55.816;37.808;2023-04-03T07:11:58;14.45;;;8.85;;
32866;SDS011;19220;55.816;37.808;2023-04-03T07:14:23;11.85;;;7.47;;
32866;SDS011;19220;55.816;37.808;2023-04-03T07:16:49;17.00;;;8.32;;
32866;SDS011;19220;55.816;37.808;2023-04-03T07:19:15;17.90;;;8.68;;
32866;SDS011;19220;55.816;37.808;2023-04-03T07:21:40;17.77;;;8.38;;
32866;SDS011;19220;55.816;37.808;2023-04-03T07:24:07;16.77;;;8.00;;
32866;SDS011;19220;55.816;37.808;2023-04-03T07:26:32;15.82;;;9.27;;
32866;SDS011;19220;55.816;37.808;2023-04-03T07:28:58;17.17;;;8.80;;
32866;SDS011;19220;55.816;37.808;2023-04-03T07:31:24;11.75;;;8.20;;
32866;SDS011;19220;55.816;37.808;2023-04-03T07:33:50;16.30;;;8.52;;
32866;SDS011;19220;55.816;37.808;2023-04-03T07:36:18;15.93;;;8.50;;
32866;SDS011;19220;55.816;37.808;2023-04-03T07:38:44;15.48;;;8.82;;
32866;SDS011;19220;55.816;37.808;2023-04-03T07:41:11;21.30;;;9.10;;
32866;SDS011;19220;55.816;37.808;2023-04-03T07:43:39;13.43;;;7.93;;
32866;SDS011;19220;55.816;37.808;2023-04-03T07:46:04;19.10;;;8.75;;
32866;SDS011;19220;55.816;37.808;2023-04-03T07:48:30;20.08;;;8.57;;
32866;SDS011;19220;55.816;37.808;2023-04-03T07:50:58;22.13;;;9.32;;
32866;SDS011;19220;55.816;37.808;2023-04-03T07:53:24;17.67;;;9.13;;
32866;SDS011;19220;55.816;37.808;2023-04-03T07:55:50;20.15;;;8.70;;
32866;SDS011;19220;55.816;37.808;2023-04-03T07:58:20;20.17;;;9.55;;
32866;SDS011;19220;55.816;37.808;2023-04-03T08:00:46;17.35;;;8.65;;
32866;SDS011;19220;55.816;37.808;2023-04-03T08:03:12;13.32;;;8.55;;
32866;SDS011;19220;55.816;37.808;2023-04-03T08:05:41;17.95;;;8.80;;
32866;SDS011;19220;55.816;37.808;2023-04-03T08:08:07;14.30;;;8.25;;
32866;SDS011;19220;55.816;37.808;2023-04-03T08:10:33;13.65;;;9.13;;
32866;SDS011;19220;55.816;37.808;2023-04-03T08:12:59;13.95;;;8.70;;
32866;SDS011;19220;55.816;37.808;2023-04-03T08:15:25;18.40;;;8.23;;
32866;SDS011;19220;55.816;37.808;2023-04-03T08:17:50;14.60;;;7.97;;
32866;SDS011;19220;55.816;37.808;2023-04-03T08:20:16;13.18;;;7.93;;
32866;SDS011;19220;55.816;37.808;2023-04-03T08:22:42;14.52;;;8.70;;
32866;SDS011;19220;55.816;37.808;2023-04-03T08:25:08;15.60;;;8.52;;
32866;SDS011;19220;55.816;37.808;2023-04-03T08:27:33;12.18;;;8.07;;
32866;SDS011;19220;55.816;37.808;2023-04-03T08:29:59;16.45;;;8.88;;
32866;SDS011;19220;55.816;37.808;2023-04-03T08:32:25;11.23;;;7.55;;
32866;SDS011;19220;55.816;37.808;2023-04-03T08:34:50;18.02;;;7.72;;
32866;SDS011;19220;55.816;37.808;2023-04-03T08:37:16;17.50;;;7.82;;
32866;SDS011;19220;55.816;37.808;2023-04-03T08:39:42;17.33;;;7.82;;
32866;SDS011;19220;55.816;37.808;2023-04-03T08:42:14;10.57;;;7.80;;
32866;SDS011;19220;55.816;37.808;2023-04-03T08:50:02;18.75;;;8.10;;
32866;SDS011;19220;55.816;37.808;2023-04-03T08:55:02;15.95;;;8.65;;
32866;SDS011;19220;55.816;37.808;2023-04-03T08:57:33;17.38;;;8.35;;
32866;SDS011;19220;55.816;37.808;2023-04-03T09:00:00;14.52;;;7.50;;
32866;SDS011;19220;55.816;37.808;2023-04-03T09:04:54;13.45;;;7.30;;
32866;SDS011;19220;55.816;37.808;2023-04-03T09:08:04;20.27;;;7.55;;
32866;SDS011;19220;55.816;37.808;2023-04-03T09:10:10;9.35;;;6.72;;
32866;SDS011;19220;55.816;37.808;2023-04-03T09:12:38;17.75;;;7.95;;
32866;SDS011;19220;55.816;37.808;2023-04-03T09:17:48;16.13;;;7.75;;
32866;SDS011;19220;55.816;37.808;2023-04-03T09:20:19;10.40;;;6.80;;
32866;SDS011;19220;55.816;37.808;2023-04-03T09:22:47;15.48;;;6.72;;
32866;SDS011;19220;55.816;37.808;2023-04-03T09:27:39;12.25;;;7.72;;
32866;SDS011;19220;55.816;37.808;2023-04-03T09:30:04;13.55;;;7.30;;
32866;SDS011;19220;55.816;37.808;2023-04-03T09:32:35;11.05;;;6.60;;
32866;SDS011;19220;55.816;37.808;2023-04-03T09:35:03;13.55;;;6.80;;
32866;SDS011;19220;55.816;37.808;2023-04-03T09:40:04;14.73;;;8.02;;
32866;SDS011;19220;55.816;37.808;2023-04-03T09:42:30;8.73;;;6.72;;
32866;SDS011;19220;55.816;37.808;2023-04-03T09:45:05;11.90;;;6.90;;
32866;SDS011;19220;55.816;37.808;2023-04-03T09:47:33;14.38;;;6.50;;
32866;SDS011;19220;55.816;37.808;2023-04-03T09:52:40;13.38;;;6.32;;
32866;SDS011;19220;55.816;37.808;2023-04-03T09:55:16;13.73;;;6.55;;
32866;SDS011;19220;55.816;37.808;2023-04-03T09:57:42;23.80;;;6.38;;
32866;SDS011;19220;55.816;37.808;2023-04-03T10:00:25;9.68;;;6.22;;
32866;SDS011;19220;55.816;37.808;2023-04-03T10:02:51;15.07;;;6.43;;
32866;SDS011;19220;55.816;37.808;2023-04-03T10:07:52;10.98;;;6.72;;
32866;SDS011;19220;55.816;37.808;2023-04-03T10:10:31;16.48;;;6.47;;
32866;SDS011;19220;55.816;37.808;2023-04-03T10:13:07;15.98;;;6.78;;
32866;SDS011;19220;55.816;37.808;2023-04-03T10:15:46;14.77;;;6.22;;
32866;SDS011;19220;55.816;37.808;2023-04-03T10:18:22;17.50;;;6.70;;
32866;SDS011;19220;55.816;37.808;2023-04-03T10:20:52;16.00;;;6.57;;
32866;SDS011;19220;55.816;37.808;2023-04-03T10:23:31;14.98;;;5.88;;
32866;SDS011;19220;55.816;37.808;2023-04-03T10:28:35;10.00;;;5.82;;
32866;SDS011;19220;55.816;37.808;2023-04-03T10:44:29;17.58;;;6.25;;
32866;SDS011;19220;55.816;37.808;2023-04-03T10:47:02;12.77;;;5.50;;
32866;SDS011;19220;55.816;37.808;2023-04-03T10:57:38;9.45;;;5.65;;
32866;SDS011;19220;55.816;37.808;2023-04-03T11:00:06;11.63;;;5.88;;
32866;SDS011;19220;55.816;37.808;2023-04-03T11:05:03;11.73;;;5.88;;
32866;SDS011;19220;55.816;37.808;2023-04-03T11:07:33;12.02;;;5.65;;
32866;SDS011;19220;55.816;37.808;2023-04-03T11:10:03;9.63;;;6.25;;
32866;SDS011;19220;55.816;37.808;2023-04-03T11:14:56;13.50;;;5.72;;
32866;SDS011;19220;55.816;37.808;2023-04-03T11:17:35;9.85;;;5.30;;
32866;SDS011;19220;55.816;37.808;2023-04-03T11:20:06;8.23;;;5.10;;
32866;SDS011;19220;55.816;37.808;2023-04-03T11:22:41;10.15;;;4.90;;
32866;SDS011;19220;55.816;37.808;2023-04-03T11:27:46;13.98;;;5.60;;
32866;SDS011;19220;55.816;37.808;2023-04-03T11:30:15;16.20;;;5.18;;
32866;SDS011;19220;55.816;37.808;2023-04-03T11:35:18;14.68;;;5.53;;
32866;SDS011;19220;55.816;37.808;2023-04-03T11:37:48;11.90;;;5.38;;
32866;SDS011;19220;55.816;37.808;2023-04-03T11:42:41;17.80;;;5.43;;
32866;SDS011;19220;55.816;37.808;2023-04-03T11:47:47;9.70;;;4.97;;
32866;SDS011;19220;55.816;37.808;2023-04-03T11:52:58;11.45;;;5.45;;
32866;SDS011;19220;55.816;37.808;2023-04-03T12:13:37;8.57;;;5.25;;
32866;SDS011;19220;55.816;37.808;2023-04-03T12:16:07;12.68;;;5.55;;
32866;SDS011;19220;55.816;37.808;2023-04-03T12:18:42;8.15;;;5.57;;
32866;SDS011;19220;55.816;37.808;2023-04-03T19:16:14;20.27;;;13.48;;
32866;SDS011;19220;55.816;37.808;2023-04-03T19:18:40;18.45;;;13.57;;
32866;SDS011;19220;55.816;37.808;2023-04-03T19:21:05;20.73;;;13.98;;
32866;SDS011;19220;55.816;37.808;2023-04-03T19:23:31;18.90;;;14.00;;
32866;SDS011;19220;55.816;37.808;2023-04-03T19:26:01;17.63;;;14.35;;
32866;SDS011;19220;55.816;37.808;2023-04-03T19:28:27;21.45;;;14.63;;
32866;SDS011;19220;55.816;37.808;2023-04-03T19:30:52;19.92;;;13.77;;
32866;SDS011;19220;55.816;37.808;2023-04-03T19:33:18;23.83;;;14.60;;
32866;SDS011;19220;55.816;37.808;2023-04-03T19:35:44;23.20;;;17.85;;
32866;SDS011;19220;55.816;37.808;2023-04-03T19:38:11;18.17;;;13.73;;
32866;SDS011;19220;55.816;37.808;2023-04-03T19:40:36;18.40;;;14.13;;
32866;SDS011;19220;55.816;37.808;2023-04-03T19:43:02;16.60;;;13.52;;
32866;SDS011;19220;55.816;37.808;2023-04-03T19:45:28;18.60;;;14.45;;
32866;SDS011;19220;55.816;37.808;2023-04-03T19:47:55;17.48;;;14.00;;
32866;SDS011;19220;55.816;37.808;2023-04-03T19:50:25;17.55;;;14.32;;
32866;SDS011;19220;55.816;37.808;2023-04-03T19:52:51;19.95;;;13.45;;
32866;SDS011;19220;55.816;37.808;2023-04-03T19:55:16;19.85;;;13.80;;
32866;SDS011;19220;55.816;37.808;2023-04-03T19:57:42;14.50;;;11.80;;
32866;SDS011;19220;55.816;37.808;2023-04-03T20:00:07;16.17;;;13.40;;
32866;SDS011;19220;55.816;37.808;2023-04-03T20:02:36;16.42;;;13.02;;
32866;SDS011;19220;55.816;37.808;2023-04-03T20:05:02;17.42;;;14.13;;
32866;SDS011;19220;55.816;37.808;2023-04-03T20:07:28;14.57;;;12.90;;
32866;SDS011;19220;55.816;37.808;2023-04-03T20:09:54;15.10;;;13.55;;
32866;SDS011;19220;55.816;37.808;2023-04-03T20:12:19;14.02;;;11.80;;
32866;SDS011;19220;55.816;37.808;2023-04-03T20:14:45;14.30;;;12.52;;
32866;SDS011;19220;55.816;37.808;2023-04-03T20:17:11;15.52;;;12.82;;
32866;SDS011;19220;55.816;37.808;2023-04-03T20:19:37;15.35;;;12.48;;
32866;SDS011;19220;55.816;37.808;2023-04-03T20:22:03;16.55;;;12.63;;
32866;SDS011;19220;55.816;37.808;2023-04-03T20:24:29;19.75;;;12.18;;
32866;SDS011;19220;55.816;37.808;2023-04-03T20:26:54;14.27;;;11.63;;
32866;SDS011;19220;55.816;37.808;2023-04-03T20:29:22;15.68;;;11.90;;
32866;SDS011;19220;55.816;37.808;2023-04-03T20:31:48;15.43;;;11.85;;
32866;SDS011;19220;55.816;37.808;2023-04-03T20:34:14;12.18;;;10.73;;
32866;SDS011;19220;55.816;37.808;2023-04-03T20:36:40;15.70;;;11.35;;
32866;SDS011;19220;55.816;37.808;2023-04-03T20:39:10;15.73;;;11.52;;
32866;SDS011;19220;55.816;37.808;2023-04-03T20:41:36;15.70;;;12.02;;
32866;SDS011;19220;55.816;37.808;2023-04-03T20:44:02;14.88;;;10.95;;
32866;SDS011;19220;55.816;37.808;2023-04-03T20:46:28;13.43;;;11.55;;
32866;SDS011;19220;55.816;37.808;2023-04-03T20:48:55;12.90;;;11.05;;
32866;SDS011;19220;55.816;37.808;2023-04-03T20:51:22;12.77;;;11.30;;
32866;SDS011;19220;55.816;37.808;2023-04-03T20:53:48;13.30;;;11.75;;
32866;SDS011;19220;55.816;37.808;2023-04-03T20:56:14;14.77;;;11.40;;
32866;SDS011;19220;55.816;37.808;2023-04-03T20:58:40;15.70;;;12.30;;
32866;SDS011;19220;55.816;37.808;2023-04-03T21:01:18;14.27;;;12.25;;
32866;SDS011;19220;55.816;37.808;2023-04-03T21:03:44;14.80;;;11.45;;
32866;SDS011;19220;55.816;37.808;2023-04-03T21:19:33;14.63;;;11.27;;
32866;SDS011;19220;55.816;37.808;2023-04-03T21:22:04;13.60;;;12.10;;
32866;SDS011;19220;55.816;37.808;2023-04-03T21:24:30;13.57;;;11.52;;
32866;SDS011;19220;55.816;37.808;2023-04-03T21:26:56;15.43;;;11.57;;
32866;SDS011;19220;55.816;37.808;2023-04-03T21:29:22;14.48;;;12.18;;
32866;SDS011;19220;55.816;37.808;2023-04-03T21:31:55;14.25;;;12.07;;
32866;SDS011;19220;55.816;37.808;2023-04-03T21:34:27;14.65;;;11.90;;
32866;SDS011;19220;55.816;37.808;2023-04-03T21:36:53;13.82;;;12.18;;
32866;SDS011;19220;55.816;37.808;2023-04-03T21:39:19;16.70;;;12.57;;
32866;SDS011;19220;55.816;37.808;2023-04-03T21:41:45;17.77;;;13.68;;
32866;SDS011;19220;55.816;37.808;2023-04-03T21:44:11;16.65;;;12.75;;
32866;SDS011;19220;55.816;37.808;2023-04-03T21:46:36;14.75;;;13.07;;
32866;SDS011;19220;55.816;37.808;2023-04-03T21:49:02;15.25;;;13.40;;
32866;SDS011;19220;55.816;37.808;2023-04-03T21:51:28;18.63;;;14.48;;
32866;SDS011;19220;55.816;37.808;2023-04-03T21:53:53;19.15;;;13.82;;
32866;SDS011;19220;55.816;37.808;2023-04-03T21:56:19;17.45;;;13.73;;
32866;SDS011;19220;55.816;37.808;2023-04-03T21:58:55;20.77;;;14.02;;
32866;SDS011;19220;55.816;37.808;2023-04-03T22:01:21;18.27;;;14.20;;
32866;SDS011;19220;55.816;37.808;2023-04-03T22:03:46;18.67;;;14.00;;
32866;SDS011;19220;55.816;37.808;2023-04-03T22:06:13;17.45;;;13.45;;
32866;SDS011;19220;55.816;37.808;2023-04-03T22:08:39;17.92;;;14.38;;
32866;SDS011;19220;55.816;37.808;2023-04-03T22:11:09;18.98;;;13.85;;
32866;SDS011;19220;55.816;37.808;2023-04-03T22:13:35;17.38;;;15.02;;
32866;SDS011;19220;55.816;37.808;2023-04-03T22:16:01;17.38;;;13.95;;
32866;SDS011;19220;55.816;37.808;2023-04-03T22:18:27;16.55;;;14.35;;
32866;SDS011;19220;55.816;37.808;2023-04-03T22:20:53;16.38;;;14.18;;
32866;SDS011;19220;55.816;37.808;2023-04-03T22:23:19;20.23;;;13.77;;
32866;SDS011;19220;55.816;37.808;2023-04-03T22:28:23;16.20;;;14.55;;
32866;SDS011;19220;55.816;37.808;2023-04-03T22:30:49;18.40;;;15.40;;
32866;SDS011;19220;55.816;37.808;2023-04-03T22:33:14;18.90;;;15.30;;
32866;SDS011;19220;55.816;37.808;2023-04-03T22:35:46;18.65;;;14.75;;
32866;SDS011;19220;55.816;37.808;2023-04-03T22:38:12;18.13;;;14.90;;
32866;SDS011;19220;55.816;37.808;2023-04-03T22:40:39;19.50;;;15.55;;
32866;SDS011;19220;55.816;37.808;2023-04-03T22:43:05;17.98;;;14.85;;
32866;SDS011;19220;55.816;37.808;2023-04-03T22:45:32;22.95;;;14.95;;
32866;SDS011;19220;55.816;37.808;2023-04-03T22:47:58;20.27;;;15.00;;
32866;SDS011;19220;55.816;37.808;2023-04-03T22:50:24;19.00;;;15.88;;
32866;SDS011;19220;55.816;37.808;2023-04-03T22:52:52;21.52;;;15.73;;
32866;SDS011;19220;55.816;37.808;2023-04-03T22:55:18;17.65;;;15.18;;
32866;SDS011;19220;55.816;37.808;2023-04-03T22:57:46;21.65;;;15.75;;
32866;SDS011;19220;55.816;37.808;2023-04-03T23:00:12;19.30;;;15.23;;